Time;durP1;ratioP1;P1;durP2;ratioP2;P2;SDS_P1;SDS_P2;PMS_P1;PMS_P2;Temp;Humidity;BMP_temperature;BMP_pressure;BME280_temperature;BME280_humidity;BME280_pressure;Samples;Min_cycle;Max_cycle;Signal;HPM_P1;HPM_P2
2023/06/19 00:00:13;;;;;;;6.45;5.10;;;22.30;99.90;;;;;;5094705;28;20173;-52
2023/06/19 00:02:43;;;;;;;6.10;5.40;;;22.40;99.90;;;;;;5094610;28;20262;-52
2023/06/19 00:05:09;;;;;;;8.73;7.70;;;22.10;99.90;;;;;;5094574;28;20165;-53
2023/06/19 00:07:38;;;;;;;15.50;10.93;;;22.20;99.90;;;;;;5094551;28;20233;-53
2023/06/19 00:10:05;;;;;;;12.05;8.88;;;22.10;99.90;;;;;;5094443;28;20184;-52
2023/06/19 00:12:30;;;;;;;7.65;6.82;;;22.20;99.90;;;;;;5094297;28;20192;-53
2023/06/19 00:14:56;;;;;;;11.52;7.53;;;22.30;99.90;;;;;;5094397;28;20204;-52
2023/06/19 00:17:21;;;;;;;6.88;6.18;;;22.10;99.90;;;;;;5094367;28;20161;-52
2023/06/19 00:19:48;;;;;;;8.55;7.70;;;22.20;99.90;;;;;;5094267;28;20593;-50
2023/06/19 00:22:15;;;;;;;8.82;8.02;;;22.30;99.90;;;;;;5094769;28;20248;-50
2023/06/19 00:24:40;;;;;;;6.78;6.15;;;22.10;99.90;;;;;;5094563;28;20161;-50
2023/06/19 00:27:06;;;;;;;9.35;7.70;;;22.30;99.90;;;;;;5094018;28;20699;-49
2023/06/19 00:29:32;;;;;;;6.90;6.20;;;22.10;99.90;;;;;;5094032;28;20165;-50
2023/06/19 00:32:01;;;;;;;5.65;4.68;;;22.10;99.90;;;;;;5094074;28;20194;-51
2023/06/19 00:34:29;;;;;;;5.35;4.20;;;22.20;99.90;;;;;;5093949;28;20246;-51
2023/06/19 00:36:56;;;;;;;5.20;4.63;;;22.00;99.90;;;;;;5093338;28;20592;-50
2023/06/19 00:39:27;;;;;;;5.18;4.40;;;22.10;99.90;;;;;;5093774;28;20525;-50
2023/06/19 00:41:54;;;;;;;5.47;4.50;;;22.10;99.90;;;;;;5094121;28;20275;-50
2023/06/19 00:44:19;;;;;;;6.70;5.10;;;22.20;99.90;;;;;;5094075;28;20218;-51
2023/06/19 00:46:45;;;;;;;6.60;4.82;;;22.00;99.90;;;;;;5094143;28;20201;-50
2023/06/19 00:49:11;;;;;;;5.72;4.68;;;21.80;99.90;;;;;;5094127;28;20172;-48
2023/06/19 00:51:37;;;;;;;9.07;4.93;;;22.00;99.90;;;;;;5093658;28;20636;-51
2023/06/19 00:54:03;;;;;;;8.68;5.13;;;22.00;99.90;;;;;;5093633;28;20173;-50
2023/06/19 00:56:29;;;;;;;5.28;4.78;;;21.90;99.90;;;;;;5093915;28;20176;-51
2023/06/19 00:58:55;;;;;;;6.43;5.13;;;22.00;99.90;;;;;;5093614;28;20532;-51
2023/06/19 01:01:23;;;;;;;5.85;5.22;;;22.40;99.90;;;;;;5093436;28;20506;-50
2023/06/19 01:03:49;;;;;;;7.20;5.38;;;22.00;99.90;;;;;;5093711;28;20219;-50
2023/06/19 01:06:21;;;;;;;5.45;4.95;;;21.90;99.90;;;;;;5093738;28;20178;-50
2023/06/19 01:08:47;;;;;;;6.60;5.00;;;22.00;99.90;;;;;;5093195;28;20274;-49
2023/06/19 01:11:18;;;;;;;7.68;5.45;;;22.40;99.90;;;;;;5093786;28;20169;-49
2023/06/19 01:13:53;;;;;;;5.97;5.45;;;21.80;99.90;;;;;;5093606;28;20165;-50
2023/06/19 01:16:21;;;;;;;8.25;5.47;;;21.90;99.90;;;;;;5093142;28;20171;-50
2023/06/19 01:18:46;;;;;;;5.57;4.97;;;21.80;99.90;;;;;;5093397;28;20272;-50
2023/06/19 01:21:15;;;;;;;7.82;5.82;;;22.00;99.90;;;;;;5093563;28;20193;-48
2023/06/19 01:23:40;;;;;;;7.05;6.35;;;21.50;99.90;;;;;;5093526;28;20264;-51
2023/06/19 01:26:07;;;;;;;6.28;5.68;;;21.90;99.90;;;;;;5093071;28;20200;-50
2023/06/19 01:28:38;;;;;;;7.75;5.70;;;21.90;99.90;;;;;;5092954;28;20173;-50
2023/06/19 01:31:10;;;;;;;6.63;5.97;;;21.90;99.90;;;;;;5093162;28;20223;-49
2023/06/19 01:33:37;;;;;;;6.78;6.18;;;21.90;99.90;;;;;;5092830;28;20176;-47
2023/06/19 01:36:05;;;;;;;6.95;6.28;;;21.70;99.90;;;;;;5092835;28;20166;-46
2023/06/19 01:38:31;;;;;;;8.35;6.10;;;21.80;99.90;;;;;;5092789;28;20172;-48
2023/06/19 01:40:59;;;;;;;8.60;5.97;;;22.00;99.90;;;;;;5092773;28;20173;-46
2023/06/19 01:43:26;;;;;;;6.20;5.68;;;21.80;99.90;;;;;;5092771;28;20539;-47
2023/06/19 01:45:51;;;;;;;6.13;5.53;;;21.70;99.90;;;;;;5092702;28;20173;-46
2023/06/19 01:48:17;;;;;;;7.22;6.00;;;21.70;99.90;;;;;;5092066;28;20212;-46
2023/06/19 01:50:47;;;;;;;10.30;5.82;;;21.90;99.90;;;;;;5093489;28;20173;-47
2023/06/19 01:53:13;;;;;;;6.97;5.75;;;21.90;99.90;;;;;;5074867;28;20171;-47
2023/06/19 01:55:39;;;;;;;7.00;5.22;;;21.60;99.90;;;;;;5092466;28;20223;-47
2023/06/19 01:58:04;;;;;;;6.03;5.43;;;21.70;99.90;;;;;;5092455;28;20185;-48
2023/06/19 02:00:32;;;;;;;6.45;5.80;;;22.00;99.90;;;;;;5092415;28;20644;-47
2023/06/19 02:02:57;;;;;;;8.57;5.78;;;21.80;99.90;;;;;;5092207;28;20170;-47
2023/06/19 02:05:23;;;;;;;11.05;5.78;;;21.90;99.90;;;;;;5092290;28;20227;-47
2023/06/19 02:07:49;;;;;;;8.32;5.35;;;21.80;99.90;;;;;;5092206;28;20736;-47
2023/06/19 02:10:14;;;;;;;11.50;5.22;;;21.90;99.90;;;;;;5092655;28;20165;-47
2023/06/19 02:12:40;;;;;;;9.32;5.28;;;22.00;99.90;;;;;;5092545;28;20637;-47
2023/06/19 02:15:07;;;;;;;8.93;5.60;;;22.00;99.90;;;;;;5092195;28;20166;-49
2023/06/19 02:17:33;;;;;;;13.63;5.85;;;22.10;99.90;;;;;;5092133;28;20177;-51
2023/06/19 02:19:58;;;;;;;10.13;5.50;;;22.00;99.90;;;;;;5092274;28;20165;-50
2023/06/19 02:22:24;;;;;;;6.88;5.07;;;21.70;99.90;;;;;;5092086;28;20528;-50
2023/06/19 02:24:49;;;;;;;6.85;5.38;;;22.50;99.90;;;;;;5091925;28;20158;-51
2023/06/19 02:27:15;;;;;;;6.35;4.85;;;;;;;;;;5092232;28;20205;-47
2023/06/19 02:29:41;;;;;;;6.90;5.18;;;22.30;99.90;;;;;;5092583;28;20168;-51
2023/06/19 02:32:07;;;;;;;6.90;5.03;;;22.10;99.90;;;;;;5091807;28;20174;-50
2023/06/19 02:34:33;;;;;;;8.73;4.97;;;22.10;99.90;;;;;;5091907;28;20161;-50
2023/06/19 02:36:59;;;;;;;6.57;5.30;;;21.80;99.90;;;;;;5091909;28;20161;-51
2023/06/19 02:39:24;;;;;;;5.40;4.68;;;22.00;99.90;;;;;;5091736;28;20684;-50
2023/06/19 02:41:50;;;;;;;7.13;4.90;;;;;;;;;;5091755;28;20624;-51
2023/06/19 02:44:16;;;;;;;9.75;5.68;;;22.00;99.90;;;;;;5091893;28;20632;-47
2023/06/19 02:46:41;;;;;;;8.25;5.22;;;21.70;99.90;;;;;;5092263;28;20201;-48
2023/06/19 02:49:07;;;;;;;6.60;4.80;;;21.70;99.90;;;;;;5091659;28;20197;-48
2023/06/19 02:51:33;;;;;;;7.70;5.55;;;21.60;99.90;;;;;;5091623;28;20665;-51
2023/06/19 02:53:58;;;;;;;5.45;4.50;;;21.60;99.90;;;;;;5091809;28;20214;-49
2023/06/19 02:56:26;;;;;;;5.72;4.28;;;21.80;99.90;;;;;;5091646;28;20229;-50
2023/06/19 02:58:52;;;;;;;8.40;5.15;;;21.60;99.90;;;;;;5091620;28;20168;-50
2023/06/19 03:01:18;;;;;;;11.45;6.03;;;;;;;;;;5093337;28;20169;-50
2023/06/19 03:03:46;;;;;;;8.93;5.10;;;21.80;99.90;;;;;;5096138;28;20176;-50
2023/06/19 03:06:13;;;;;;;10.68;5.25;;;21.60;99.90;;;;;;5095940;28;20670;-50
2023/06/19 03:08:38;;;;;;;8.38;5.82;;;21.20;99.90;;;;;;5095491;28;20592;-46
2023/06/19 03:11:05;;;;;;;11.68;6.03;;;21.20;99.90;;;;;;5095638;28;20273;-46
2023/06/19 03:13:51;;;;;;;8.60;4.40;;;21.10;99.90;;;;;;5095688;28;20543;-46
2023/06/19 03:16:17;;;;;;;4.30;3.90;;;21.10;99.90;;;;;;5095461;28;20162;-47
2023/06/19 03:18:44;;;;;;;8.57;3.88;;;21.10;99.90;;;;;;5096087;28;20192;-46
2023/06/19 03:21:10;;;;;;;7.90;3.33;;;20.90;99.90;;;;;;5077656;28;20162;-47
2023/06/19 03:23:36;;;;;;;9.60;4.18;;;20.90;99.90;;;;;;5095243;28;20223;-46
2023/06/19 03:26:03;;;;;;;5.53;3.80;;;;;;;;;;5095547;28;20165;-46
2023/06/19 03:28:28;;;;;;;3.97;3.33;;;20.60;99.90;;;;;;5095252;28;20200;-47
2023/06/19 03:30:54;;;;;;;4.32;3.92;;;20.70;99.90;;;;;;5095311;28;20177;-46
2023/06/19 03:33:20;;;;;;;4.82;4.05;;;20.60;99.90;;;;;;5094953;28;20176;-46
2023/06/19 03:35:46;;;;;;;3.50;3.13;;;20.30;99.90;;;;;;5095133;28;20576;-46
2023/06/19 03:38:11;;;;;;;5.57;3.30;;;20.80;99.90;;;;;;5095418;28;20638;-46
2023/06/19 03:40:37;;;;;;;4.35;3.30;;;20.70;99.90;;;;;;5095098;28;20173;-46
2023/06/19 03:43:02;;;;;;;5.78;4.00;;;20.60;99.90;;;;;;5094782;28;20165;-47
2023/06/19 03:45:28;;;;;;;4.75;3.33;;;20.40;99.90;;;;;;5094589;28;20264;-46
2023/06/19 03:47:53;;;;;;;6.03;3.58;;;20.10;99.90;;;;;;5094861;28;20201;-46
2023/06/19 03:50:19;;;;;;;5.10;3.60;;;20.60;99.90;;;;;;5094847;28;20656;-46
2023/06/19 03:52:45;;;;;;;4.65;3.30;;;;;;;;;;5095068;28;20251;-46
2023/06/19 03:55:11;;;;;;;3.45;3.15;;;20.30;99.90;;;;;;5095204;28;20168;-46
2023/06/19 03:57:36;;;;;;;5.95;3.67;;;20.60;99.90;;;;;;5094695;28;20169;-46
2023/06/19 04:00:07;;;;;;;4.20;2.95;;;20.60;99.90;;;;;;5094703;28;20172;-46
2023/06/19 04:02:33;;;;;;;3.53;3.22;;;20.30;99.90;;;;;;5094840;28;20173;-47
2023/06/19 04:04:58;;;;;;;3.75;3.05;;;20.40;99.90;;;;;;5094592;28;20172;-46
2023/06/19 04:07:24;;;;;;;4.50;3.63;;;20.80;99.90;;;;;;5094305;28;20228;-46
2023/06/19 04:09:49;;;;;;;3.15;2.72;;;20.70;99.90;;;;;;5094557;28;20500;-47
2023/06/19 04:12:15;;;;;;;4.05;2.92;;;20.70;99.90;;;;;;5094259;28;20659;-47
2023/06/19 04:14:41;;;;;;;4.57;3.28;;;20.60;99.90;;;;;;5094824;28;20158;-46
2023/06/19 04:17:06;;;;;;;3.58;3.05;;;20.80;99.90;;;;;;5094358;28;20645;-47
2023/06/19 04:19:32;;;;;;;4.93;3.03;;;20.70;99.90;;;;;;5094261;28;20173;-46
2023/06/19 04:21:57;;;;;;;9.68;3.05;;;20.70;99.90;;;;;;5094242;28;20178;-46
2023/06/19 04:24:23;;;;;;;3.22;2.72;;;20.70;99.90;;;;;;5094110;28;20176;-47
2023/06/19 04:26:48;;;;;;;3.45;2.80;;;20.20;99.90;;;;;;5094337;28;20201;-47
2023/06/19 04:29:17;;;;;;;3.30;2.67;;;;;;;;;;5094687;28;20158;-46
2023/06/19 04:31:46;;;;;;;4.20;3.05;;;20.70;99.90;;;;;;5094350;28;20173;-52
2023/06/19 04:34:14;;;;;;;2.70;2.50;;;20.70;99.90;;;;;;5094652;28;20170;-51
2023/06/19 04:36:40;;;;;;;2.92;2.38;;;20.10;99.90;;;;;;5094636;28;20166;-51
2023/06/19 04:39:06;;;;;;;3.40;2.45;;;20.60;99.90;;;;;;5093984;28;20170;-50
2023/06/19 04:41:32;;;;;;;3.65;2.90;;;20.60;99.90;;;;;;5093894;28;20169;-52
2023/06/19 04:43:57;;;;;;;4.97;2.50;;;20.10;99.90;;;;;;5075796;28;20180;-52
2023/06/19 04:46:23;;;;;;;5.20;2.40;;;20.70;99.90;;;;;;5093703;28;20679;-51
2023/06/19 04:48:51;;;;;;;2.67;2.35;;;20.50;99.90;;;;;;5093664;28;20173;-52
2023/06/19 04:51:21;;;;;;;3.08;2.72;;;20.30;99.90;;;;;;5093587;28;20565;-51
2023/06/19 04:53:49;;;;;;;3.17;2.83;;;20.40;99.90;;;;;;5093595;28;20702;-50
2023/06/19 04:56:15;;;;;;;5.15;2.85;;;20.50;99.90;;;;;;5093545;28;20157;-51
2023/06/19 04:58:45;;;;;;;5.30;2.88;;;20.70;99.90;;;;;;5094074;28;20169;-51
2023/06/19 05:01:12;;;;;;;4.55;2.50;;;20.70;99.90;;;;;;5094132;28;20169;-51
2023/06/19 05:03:38;;;;;;;2.80;2.45;;;20.90;99.90;;;;;;5093192;28;20165;-51
2023/06/19 05:06:03;;;;;;;5.20;2.67;;;20.90;99.90;;;;;;5093362;28;20832;-51
2023/06/19 05:08:29;;;;;;;3.47;2.78;;;20.80;99.90;;;;;;5093018;28;20221;-49
2023/06/19 05:10:54;;;;;;;3.20;2.90;;;21.00;99.90;;;;;;5093288;28;20172;-51
2023/06/19 05:13:20;;;;;;;7.72;3.17;;;21.00;99.90;;;;;;5093126;28;20173;-51
2023/06/19 05:15:45;;;;;;;4.32;2.40;;;21.20;99.90;;;;;;5093146;28;20630;-51
2023/06/19 05:18:11;;;;;;;2.50;2.22;;;20.60;99.90;;;;;;5093588;28;20617;-51
2023/06/19 05:20:36;;;;;;;3.63;2.28;;;20.80;99.90;;;;;;5093127;28;20177;-51
2023/06/19 05:23:02;;;;;;;3.92;2.10;;;20.60;99.90;;;;;;5092464;28;20616;-49
2023/06/19 05:25:28;;;;;;;11.38;2.60;;;21.20;99.90;;;;;;5092640;28;20688;-51
2023/06/19 05:27:53;;;;;;;9.70;2.35;;;21.00;99.90;;;;;;5092894;28;20288;-51
2023/06/19 05:30:19;;;;;;;3.50;2.20;;;21.00;99.90;;;;;;5092781;28;20169;-51
2023/06/19 05:32:44;;;;;;;3.42;2.40;;;21.00;99.90;;;;;;5092855;28;20177;-50
2023/06/19 05:35:10;;;;;;;5.88;2.17;;;21.00;99.90;;;;;;5093066;28;20192;-50
2023/06/19 05:37:35;;;;;;;3.05;1.90;;;21.20;99.90;;;;;;5092916;28;20180;-50
2023/06/19 05:40:01;;;;;;;3.80;2.00;;;20.90;99.90;;;;;;5092575;28;20517;-50
2023/06/19 05:42:26;;;;;;;2.90;2.20;;;21.30;99.90;;;;;;5092687;28;20256;-50
2023/06/19 05:44:52;;;;;;;6.43;2.28;;;21.40;99.90;;;;;;5092668;28;20169;-50
2023/06/19 05:47:20;;;;;;;5.07;2.88;;;21.70;99.90;;;;;;5092430;28;20256;-50
2023/06/19 05:49:47;;;;;;;2.30;2.10;;;21.60;99.90;;;;;;5092533;28;20524;-50
2023/06/19 05:52:12;;;;;;;3.53;2.10;;;21.80;99.90;;;;;;5092843;28;20624;-50
2023/06/19 05:54:38;;;;;;;3.38;2.10;;;21.90;99.90;;;;;;5092439;28;20161;-50
2023/06/19 05:57:04;;;;;;;10.90;2.42;;;;;;;;;;5092428;28;20162;-50
2023/06/19 05:59:29;;;;;;;5.90;2.35;;;21.80;99.90;;;;;;5092404;28;20248;-50
2023/06/19 06:01:55;;;;;;;4.07;2.30;;;21.60;99.90;;;;;;5092336;28;20204;-50
2023/06/19 06:04:21;;;;;;;8.82;2.60;;;21.90;99.90;;;;;;5092197;28;20181;-50
2023/06/19 06:06:47;;;;;;;3.60;2.33;;;21.60;99.90;;;;;;5092396;28;20276;-50
2023/06/19 06:09:14;;;;;;;6.13;2.28;;;22.20;99.90;;;;;;5092452;28;20212;-50
2023/06/19 06:11:40;;;;;;;5.90;2.38;;;22.30;99.90;;;;;;5092802;28;20173;-50
2023/06/19 06:14:05;;;;;;;5.70;2.30;;;22.90;99.90;;;;;;5074058;28;20161;-50
2023/06/19 06:16:31;;;;;;;4.82;2.10;;;22.60;99.90;;;;;;5092013;28;20183;-50
2023/06/19 06:18:56;;;;;;;4.20;2.00;;;22.60;99.90;;;;;;5092096;28;20169;-50
2023/06/19 06:21:22;;;;;;;2.65;1.92;;;22.90;99.90;;;;;;5092080;28;20169;-50
2023/06/19 06:23:48;;;;;;;2.50;1.58;;;23.00;99.90;;;;;;5092183;28;20165;-50
2023/06/19 06:26:14;;;;;;;2.00;1.90;;;;;;;;;;5092115;28;20174;-50
2023/06/19 06:28:40;;;;;;;2.30;1.75;;;22.70;99.90;;;;;;5092302;28;20898;-50
2023/06/19 06:31:06;;;;;;;4.82;2.25;;;22.90;99.90;;;;;;5091930;28;20165;-50
2023/06/19 06:33:32;;;;;;;2.17;1.98;;;22.60;99.90;;;;;;5092039;28;20256;-50
2023/06/19 06:35:59;;;;;;;2.97;1.98;;;22.30;99.90;;;;;;5091787;28;20636;-50
2023/06/19 06:38:25;;;;;;;2.70;2.35;;;22.50;99.90;;;;;;5091762;28;20230;-50
2023/06/19 06:40:51;;;;;;;4.25;2.00;;;22.60;99.90;;;;;;5091699;28;20177;-50
2023/06/19 06:43:16;;;;;;;2.30;2.05;;;22.10;99.90;;;;;;5091824;28;20173;-50
2023/06/19 06:45:42;;;;;;;4.63;1.95;;;22.50;99.90;;;;;;5092149;28;20667;-50
2023/06/19 06:48:08;;;;;;;3.65;1.90;;;22.70;99.90;;;;;;5091582;28;20288;-50
2023/06/19 06:50:33;;;;;;;2.90;1.80;;;22.50;99.90;;;;;;5091606;28;20195;-50
2023/06/19 06:53:00;;;;;;;3.00;2.25;;;22.60;99.90;;;;;;5091644;28;20208;-50
2023/06/19 06:55:26;;;;;;;3.00;2.22;;;;;;;;;;5091570;28;20214;-50
2023/06/19 06:57:51;;;;;;;2.63;1.98;;;22.40;99.90;;;;;;5091619;28;20169;-50
2023/06/19 07:00:18;;;;;;;2.08;1.90;;;22.70;99.90;;;;;;5091583;28;20161;-50
2023/06/19 07:02:43;;;;;;;2.35;2.13;;;22.80;99.90;;;;;;5091702;28;20243;-50
2023/06/19 07:05:10;;;;;;;4.20;2.17;;;22.60;99.90;;;;;;5092210;28;20184;-50
2023/06/19 07:07:35;;;;;;;3.53;2.17;;;22.70;99.90;;;;;;5091182;28;20228;-50
2023/06/19 07:10:01;;;;;;;3.13;2.38;;;22.80;99.90;;;;;;5091540;28;20176;-50
2023/06/19 07:12:27;;;;;;;4.78;2.00;;;22.40;99.90;;;;;;5091348;28;20168;-50
2023/06/19 07:14:56;;;;;;;2.78;2.22;;;22.70;99.90;;;;;;5091294;28;20527;-50
2023/06/19 07:17:22;;;;;;;2.78;2.00;;;22.70;99.90;;;;;;5091468;28;20169;-46
2023/06/19 07:19:47;;;;;;;2.67;2.30;;;22.40;99.90;;;;;;5088975;28;20169;-53
2023/06/19 07:22:13;;;;;;;2.00;1.80;;;22.60;99.90;;;;;;5089753;28;20278;-52
2023/06/19 07:24:40;;;;;;;3.85;2.72;;;22.40;99.90;;;;;;5089949;28;20169;-51
2023/06/19 07:27:06;;;;;;;2.90;2.55;;;;;;;;;;5089591;28;20619;-50
2023/06/19 07:29:32;;;;;;;2.17;1.98;;;22.20;99.90;;;;;;5089598;28;20690;-52
2023/06/19 07:31:58;;;;;;;3.25;2.10;;;22.70;99.90;;;;;;5089784;28;20166;-51
2023/06/19 07:34:24;;;;;;;3.25;2.20;;;22.30;99.90;;;;;;5089623;28;20647;-52
2023/06/19 07:36:50;;;;;;;2.35;2.15;;;22.60;99.90;;;;;;5089853;28;20179;-52
2023/06/19 07:39:15;;;;;;;3.72;2.60;;;22.60;99.90;;;;;;5089794;28;20173;-53
2023/06/19 07:41:41;;;;;;;2.67;2.45;;;22.80;99.90;;;;;;5089992;28;20172;-52
2023/06/19 07:44:07;;;;;;;2.50;2.30;;;22.90;99.90;;;;;;5071700;28;20214;-52
2023/06/19 07:46:33;;;;;;;4.55;1.92;;;22.90;99.90;;;;;;5089878;28;20636;-52
2023/06/19 07:48:58;;;;;;;2.83;2.40;;;23.00;99.90;;;;;;5093162;28;20505;-52
2023/06/19 07:51:24;;;;;;;3.63;2.40;;;22.90;99.90;;;;;;5093201;28;20684;-52
2023/06/19 07:53:49;;;;;;;6.72;2.78;;;23.00;99.90;;;;;;5093217;28;20260;-52
2023/06/19 07:56:15;;;;;;;2.72;2.40;;;23.10;99.90;;;;;;5093418;28;20184;-52
2023/06/19 07:58:41;;;;;;;2.95;2.40;;;23.30;99.90;;;;;;5093577;28;20161;-52
2023/06/19 08:01:06;;;;;;;7.07;2.58;;;23.50;99.90;;;;;;5092991;28;20251;-52
2023/06/19 08:03:32;;;;;;;3.90;2.00;;;23.60;99.90;;;;;;5093043;28;20169;-52
2023/06/19 08:05:57;;;;;;;2.78;2.30;;;23.80;99.90;;;;;;5092892;28;20625;-51
2023/06/19 08:08:23;;;;;;;4.43;2.60;;;23.50;99.90;;;;;;5092759;28;20228;-52
2023/06/19 08:10:48;;;;;;;3.63;2.33;;;23.70;99.90;;;;;;5092909;28;20653;-52
2023/06/19 08:13:14;;;;;;;2.92;2.47;;;23.90;99.90;;;;;;5092844;28;20173;-52
2023/06/19 08:15:40;;;;;;;3.47;2.58;;;24.20;99.90;;;;;;5093163;28;20166;-52
2023/06/19 08:18:05;;;;;;;3.17;2.22;;;24.30;99.90;;;;;;5092658;28;20169;-51
2023/06/19 08:20:31;;;;;;;3.25;2.47;;;24.50;99.90;;;;;;5092577;28;20165;-51
2023/06/19 08:22:56;;;;;;;3.65;2.15;;;24.30;99.90;;;;;;5092734;28;20165;-51
2023/06/19 08:25:22;;;;;;;3.10;2.28;;;24.10;99.90;;;;;;5074398;28;20204;-51
2023/06/19 08:27:48;;;;;;;5.40;2.40;;;24.60;99.90;;;;;;5092523;28;20292;-51
2023/06/19 08:30:13;;;;;;;5.28;3.17;;;25.20;99.90;;;;;;5092417;28;20493;-52
2023/06/19 08:32:39;;;;;;;4.45;3.13;;;;;;;;;;5092888;28;20181;-51
2023/06/19 08:35:06;;;;;;;3.50;2.70;;;24.70;99.90;;;;;;5092289;28;20244;-51
2023/06/19 08:37:31;;;;;;;3.22;2.60;;;24.80;99.90;;;;;;5092449;28;20624;-51
2023/06/19 08:39:57;;;;;;;5.00;2.92;;;25.00;99.90;;;;;;5092673;28;20173;-52
2023/06/19 08:42:22;;;;;;;3.67;3.35;;;25.90;99.90;;;;;;5092439;28;20628;-52
2023/06/19 08:44:48;;;;;;;4.40;2.95;;;25.20;99.90;;;;;;5092275;28;20173;-51
2023/06/19 08:47:14;;;;;;;5.25;3.10;;;25.40;99.90;;;;;;5092335;28;20269;-51
2023/06/19 08:49:40;;;;;;;5.25;3.50;;;25.00;99.90;;;;;;5092597;28;20167;-52
2023/06/19 08:52:06;;;;;;;4.35;3.45;;;25.60;99.90;;;;;;5092517;28;20179;-51
2023/06/19 08:54:32;;;;;;;5.18;3.33;;;25.70;99.90;;;;;;5092135;28;20168;-52
2023/06/19 08:57:01;;;;;;;4.90;3.00;;;25.80;99.90;;;;;;5073784;28;20261;-52
2023/06/19 08:59:28;;;;;;;3.88;3.50;;;25.50;99.90;;;;;;5091085;28;20226;-52
2023/06/19 09:01:54;;;;;;;4.45;3.28;;;25.60;99.90;;;;;;5092298;28;20169;-51
2023/06/19 09:04:27;;;;;;;5.40;3.42;;;25.30;99.90;;;;;;5092125;28;20175;-52
2023/06/19 09:06:55;;;;;;;4.53;3.75;;;25.60;99.90;;;;;;5091766;28;20604;-52
2023/06/19 09:09:23;;;;;;;8.52;3.38;;;25.50;99.90;;;;;;5090930;28;20643;-52
2023/06/19 09:12:03;;;;;;;4.43;3.13;;;25.20;99.90;;;;;;5091535;28;20172;-52
2023/06/19 09:14:40;;;;;;;5.30;3.20;;;25.60;99.90;;;;;;5091701;28;20222;-51
2023/06/19 09:17:10;;;;;;;4.70;3.42;;;25.70;99.90;;;;;;5091816;28;20168;-52
2023/06/19 09:19:36;;;;;;;5.85;3.28;;;25.80;99.90;;;;;;5091926;28;20192;-52
2023/06/19 09:22:07;;;;;;;7.60;3.38;;;26.10;99.90;;;;;;5091446;28;21048;-52
2023/06/19 09:24:38;;;;;;;3.50;3.20;;;26.50;99.90;;;;;;5091526;28;20161;-52
2023/06/19 09:27:13;;;;;;;7.05;4.10;;;26.30;99.90;;;;;;5091350;28;20200;-51
2023/06/19 09:29:40;;;;;;;3.63;3.33;;;26.20;99.90;;;;;;5091876;28;20181;-52
2023/06/19 09:32:35;;;;;;;4.25;3.65;;;26.30;99.90;;;;;;5091612;28;20221;-52
2023/06/19 09:35:01;;;;;;;4.82;3.72;;;26.40;99.90;;;;;;5069554;28;20185;-52
2023/06/19 09:37:28;;;;;;;5.05;3.90;;;26.30;99.90;;;;;;5091274;28;20169;-52
2023/06/19 09:40:10;;;;;;;4.05;3.60;;;26.20;99.90;;;;;;5072901;28;20247;-52
2023/06/19 09:42:40;;;;;;;5.82;3.35;;;26.30;99.90;;;;;;5091139;28;20562;-52
2023/06/19 09:45:08;;;;;;;5.15;3.67;;;26.50;99.90;;;;;;5091295;28;20164;-52
2023/06/19 09:47:42;;;;;;;5.18;3.55;;;26.40;99.90;;;;;;5091236;28;20291;-52
2023/06/19 09:50:08;;;;;;;5.07;3.15;;;26.00;99.90;;;;;;5091630;28;20161;-52
2023/06/19 09:52:34;;;;;;;5.93;3.22;;;26.60;99.90;;;;;;5091145;28;20200;-52
2023/06/19 09:55:04;;;;;;;5.78;3.60;;;26.50;99.90;;;;;;5090720;28;20204;-52
2023/06/19 09:57:30;;;;;;;4.57;3.60;;;26.10;99.90;;;;;;5091206;28;20208;-52
2023/06/19 09:59:58;;;;;;;7.63;4.10;;;26.40;99.90;;;;;;5090900;28;20244;-52
2023/06/19 10:02:27;;;;;;;4.25;3.28;;;26.60;99.90;;;;;;5090833;28;20172;-52
2023/06/19 10:04:55;;;;;;;7.28;3.90;;;26.60;99.90;;;;;;5090418;28;20291;-52
2023/06/19 10:07:32;;;;;;;4.82;3.53;;;26.70;99.90;;;;;;5090453;28;20201;-51
2023/06/19 10:10:06;;;;;;;6.25;3.80;;;27.20;99.90;;;;;;5090819;28;20187;-52
2023/06/19 10:12:47;;;;;;;4.95;3.60;;;27.00;99.90;;;;;;5090815;28;20194;-52
2023/06/19 10:15:17;;;;;;;8.55;4.05;;;27.00;99.90;;;;;;5090899;28;20171;-51
2023/06/19 10:17:50;;;;;;;7.93;3.70;;;26.90;99.90;;;;;;5090688;28;20567;-52
2023/06/19 10:20:27;;;;;;;5.75;3.20;;;27.00;99.90;;;;;;5090279;28;20165;-52
2023/06/19 10:23:01;;;;;;;5.57;3.20;;;27.00;99.90;;;;;;5090255;28;20666;-51
2023/06/19 10:25:35;;;;;;;5.97;3.70;;;27.20;99.90;;;;;;5090588;28;20164;-52
2023/06/19 10:28:01;;;;;;;5.40;3.70;;;27.30;99.90;;;;;;5090646;28;20232;-51
2023/06/19 10:30:29;;;;;;;6.35;3.88;;;27.40;99.90;;;;;;5090360;28;20163;-51
2023/06/19 10:32:54;;;;;;;3.60;3.28;;;27.20;99.90;;;;;;5090542;28;20188;-51
2023/06/19 10:35:21;;;;;;;4.43;3.67;;;27.40;99.90;;;;;;5090431;28;20164;-51
2023/06/19 10:37:48;;;;;;;5.45;3.40;;;27.60;99.90;;;;;;5072191;28;20168;-52
2023/06/19 10:40:14;;;;;;;5.47;4.00;;;27.70;99.90;;;;;;5090510;28;20161;-52
2023/06/19 10:42:40;;;;;;;4.03;3.63;;;27.60;99.90;;;;;;5090632;28;20168;-52
2023/06/19 10:45:15;;;;;;;5.93;3.50;;;27.80;99.90;;;;;;5090201;28;20662;-51
2023/06/19 10:47:41;;;;;;;3.63;3.20;;;;;;;;;;5090129;28;20694;-51
2023/06/19 10:50:11;;;;;;;4.63;3.72;;;27.60;99.90;;;;;;5090332;28;20165;-51
2023/06/19 10:52:43;;;;;;;6.20;3.83;;;27.80;99.90;;;;;;5090373;28;20167;-51
2023/06/19 10:55:10;;;;;;;4.30;3.90;;;28.00;99.90;;;;;;5090778;28;20172;-52
2023/06/19 10:57:36;;;;;;;4.63;3.58;;;28.10;99.90;;;;;;5090158;28;20180;-51
2023/06/19 11:00:09;;;;;;;3.75;3.30;;;28.20;99.90;;;;;;5090281;28;20165;-52
2023/06/19 11:02:37;;;;;;;7.28;3.97;;;;;;;;;;5090100;28;20259;-51
2023/06/19 11:05:03;;;;;;;6.03;3.97;;;28.20;99.90;;;;;;5090173;28;20527;-51
2023/06/19 11:07:28;;;;;;;4.53;3.78;;;28.40;99.90;;;;;;5089609;28;20222;-51
2023/06/19 11:09:54;;;;;;;9.88;4.47;;;27.90;99.90;;;;;;5088924;28;20176;-51
2023/06/19 11:12:21;;;;;;;5.40;3.88;;;28.30;99.90;;;;;;5089558;28;20636;-52
2023/06/19 11:14:48;;;;;;;3.80;3.45;;;28.50;99.90;;;;;;5071755;28;20196;-52
2023/06/19 11:17:13;;;;;;;4.85;4.25;;;28.60;99.90;;;;;;5089708;28;20239;-52
2023/06/19 11:19:41;;;;;;;6.78;4.40;;;28.30;99.90;;;;;;5090461;28;20248;-52
2023/06/19 11:22:07;;;;;;;6.40;4.15;;;28.20;99.90;;;;;;5091917;28;20169;-52
2023/06/19 11:24:33;;;;;;;6.55;4.03;;;28.10;99.90;;;;;;5093807;28;20259;-51
2023/06/19 11:26:59;;;;;;;4.55;4.15;;;28.50;99.90;;;;;;5093443;28;20205;-52
2023/06/19 11:29:30;;;;;;;5.93;4.03;;;28.20;99.90;;;;;;5093711;28;20538;-51
2023/06/19 11:32:07;;;;;;;5.65;4.43;;;28.10;99.90;;;;;;5093515;28;20169;-51
2023/06/19 11:34:36;;;;;;;9.35;4.50;;;28.20;99.90;;;;;;5093539;28;20647;-51
2023/06/19 11:37:11;;;;;;;8.55;4.38;;;28.30;99.90;;;;;;5093463;28;20717;-51
2023/06/19 11:39:37;;;;;;;6.32;4.45;;;28.50;99.90;;;;;;5094058;28;20174;-51
2023/06/19 11:42:03;;;;;;;8.00;4.60;;;28.40;99.90;;;;;;5093122;28;20304;-51
2023/06/19 11:44:29;;;;;;;6.85;4.00;;;28.30;99.90;;;;;;5093170;28;20175;-51
2023/06/19 11:47:00;;;;;;;5.97;4.03;;;28.50;99.90;;;;;;5093497;28;20203;-51
2023/06/19 11:49:26;;;;;;;5.38;3.90;;;28.70;99.90;;;;;;5093510;28;20196;-51
2023/06/19 11:51:53;;;;;;;6.50;4.47;;;28.70;99.90;;;;;;5093516;28;20186;-51
2023/06/19 11:54:19;;;;;;;5.95;3.90;;;28.70;99.90;;;;;;5093026;28;20225;-52
2023/06/19 11:56:44;;;;;;;6.80;4.10;;;28.60;99.90;;;;;;5093494;28;20175;-51
2023/06/19 11:59:10;;;;;;;3.92;3.53;;;28.50;99.90;;;;;;5075632;28;20538;-51
2023/06/19 12:01:37;;;;;;;6.30;4.28;;;28.60;99.90;;;;;;5092726;28;20176;-57
2023/06/19 12:04:03;;;;;;;5.15;3.88;;;28.90;99.90;;;;;;5093067;28;20165;-55
2023/06/19 12:06:29;;;;;;;8.13;3.97;;;29.40;99.90;;;;;;5093881;28;20165;-52
2023/06/19 12:08:55;;;;;;;6.03;4.03;;;29.30;99.90;;;;;;5094139;28;20242;-53
2023/06/19 12:11:21;;;;;;;7.50;4.32;;;29.20;99.90;;;;;;5094212;28;20218;-52
2023/06/19 12:13:48;;;;;;;7.47;4.40;;;29.30;99.90;;;;;;5093267;28;20252;-52
2023/06/19 12:16:14;;;;;;;6.18;4.05;;;29.80;99.90;;;;;;5075851;28;20642;-53
2023/06/19 12:18:41;;;;;;;4.60;4.20;;;29.80;99.90;;;;;;5094611;28;20176;-53
2023/06/19 12:21:07;;;;;;;8.88;4.20;;;29.60;99.90;;;;;;5094616;28;20161;-53
2023/06/19 12:23:33;;;;;;;6.35;3.75;;;29.70;99.90;;;;;;5093693;28;20203;-52
2023/06/19 12:25:59;;;;;;;5.72;3.70;;;29.80;99.90;;;;;;5094025;28;20157;-53
2023/06/19 12:28:25;;;;;;;5.80;4.50;;;30.10;99.90;;;;;;5093947;28;20686;-53
2023/06/19 12:30:52;;;;;;;5.55;4.55;;;30.00;99.90;;;;;;5075516;28;20647;-52
2023/06/19 12:33:20;;;;;;;6.45;3.83;;;29.60;99.90;;;;;;5093724;28;20175;-53
2023/06/19 12:35:46;;;;;;;6.25;4.80;;;29.30;99.90;;;;;;5093879;28;20180;-53
2023/06/19 12:38:12;;;;;;;5.28;3.92;;;29.30;99.90;;;;;;5093765;28;20168;-53
2023/06/19 12:40:38;;;;;;;6.95;4.30;;;29.00;99.90;;;;;;5094165;28;20244;-52
2023/06/19 12:43:04;;;;;;;6.43;4.30;;;29.20;99.90;;;;;;5093610;28;20199;-52
2023/06/19 12:45:29;;;;;;;5.97;4.32;;;29.30;99.90;;;;;;5093478;28;21444;-52
2023/06/19 12:47:55;;;;;;;5.55;4.10;;;29.10;99.90;;;;;;5093518;28;20208;-52